createdAt,value
2023-03-23T15:57:56.846Z,4.20
2023-03-23T16:00:29.138Z,4.20
2023-03-23T16:03:01.017Z,4.50
2023-03-23T16:05:30.124Z,4.60
2023-03-23T16:07:59.240Z,3.88
2023-03-23T16:10:29.006Z,4.22
2023-03-23T16:12:59.657Z,4.53
2023-03-23T16:15:28.184Z,4.30
2023-03-23T16:17:56.683Z,4.00
2023-03-23T16:20:26.821Z,3.60
2023-03-23T16:22:55.451Z,3.70
2023-03-23T16:25:24.632Z,3.47
2023-03-23T16:27:54.596Z,3.13
2023-03-23T16:30:30.591Z,3.20
2023-03-23T16:32:59.008Z,3.25
2023-03-23T16:35:27.856Z,3.15
2023-03-23T16:38:08.557Z,3.30
2023-03-23T16:40:38.572Z,3.47
2023-03-23T16:43:09.623Z,3.20
2023-03-23T16:45:43.721Z,3.30
2023-03-23T16:48:14.912Z,3.33
2023-03-23T16:50:44.322Z,3.40
2023-03-23T16:53:14.133Z,3.47
2023-03-23T16:55:44.457Z,4.15
2023-03-23T16:58:16.866Z,5.10
2023-03-23T17:00:50.183Z,4.40
2023-03-23T17:03:19.327Z,4.85
2023-03-23T17:05:49.322Z,4.93
2023-03-23T17:08:20.901Z,4.70
2023-03-23T17:10:49.797Z,4.72
2023-03-23T17:13:18.924Z,4.43
2023-03-23T17:15:48.704Z,4.55
2023-03-23T17:18:17.514Z,9.63
2023-03-23T17:20:48.754Z,10.48
2023-03-23T17:23:17.871Z,12.93
2023-03-23T17:25:47.873Z,13.40
2023-03-23T17:28:18.120Z,10.07
2023-03-23T17:30:52.331Z,8.30
2023-03-23T17:33:22.857Z,6.22
2023-03-23T17:35:55.014Z,7.40
2023-03-23T17:38:24.627Z,6.95
2023-03-23T17:40:59.095Z,6.78
2023-03-23T17:43:30.642Z,6.70
2023-03-23T17:46:00.412Z,7.32
2023-03-23T17:48:30.190Z,8.15
2023-03-23T17:51:05.846Z,9.10
2023-03-23T17:53:36.662Z,8.60
2023-03-23T17:56:08.870Z,8.85
2023-03-23T17:58:37.757Z,7.90
2023-03-23T18:01:08.084Z,8.20
2023-03-23T18:03:38.720Z,7.00
2023-03-23T18:06:09.374Z,7.20
2023-03-23T18:08:38.758Z,9.40
2023-03-23T18:11:09.241Z,10.57
2023-03-23T18:13:39.441Z,9.75
2023-03-23T18:16:14.382Z,10.07
2023-03-23T18:18:44.885Z,9.43
2023-03-23T18:21:15.243Z,9.55
2023-03-23T18:23:53.186Z,9.38
2023-03-23T18:26:25.882Z,10.05
2023-03-23T18:28:54.217Z,8.55
2023-03-23T18:31:23.868Z,8.70
2023-03-23T18:33:55.011Z,8.98
2023-03-23T18:36:25.662Z,10.53
2023-03-23T18:38:56.696Z,12.40
2023-03-23T18:41:25.521Z,17.17
2023-03-23T18:43:57.883Z,22.33
2023-03-23T18:46:27.891Z,27.63
2023-03-23T18:48:56.207Z,31.48
2023-03-23T18:51:26.139Z,39.63
2023-03-23T18:53:54.891Z,31.88
2023-03-23T18:56:23.518Z,31.73
2023-03-23T18:58:53.232Z,28.38
2023-03-23T19:01:22.006Z,22.40
2023-03-23T19:03:51.941Z,19.02
2023-03-23T19:06:25.684Z,21.75
2023-03-23T19:08:56.772Z,22.63
2023-03-23T19:11:27.612Z,24.03
2023-03-23T19:14:02.818Z,24.45
2023-03-23T19:16:36.068Z,21.75
2023-03-23T19:19:09.025Z,21.15
2023-03-23T19:21:43.819Z,18.80
2023-03-23T19:24:14.892Z,18.77
2023-03-23T19:26:46.720Z,17.13
2023-03-23T19:29:26.599Z,15.25
2023-03-23T19:31:57.057Z,15.05
2023-03-23T19:34:30.106Z,15.13
2023-03-23T19:37:05.904Z,15.98
2023-03-23T19:39:36.777Z,15.20
2023-03-23T19:42:05.869Z,14.82
2023-03-23T19:44:34.929Z,14.05
2023-03-23T19:47:04.040Z,14.40
2023-03-23T19:49:33.794Z,13.98
2023-03-23T19:52:07.772Z,13.35
2023-03-23T19:54:41.631Z,13.95
2023-03-23T19:57:12.608Z,13.95
2023-03-23T19:59:41.012Z,13.77
2023-03-23T20:02:12.617Z,14.02
2023-03-23T20:04:43.417Z,13.80
2023-03-23T20:07:12.608Z,14.23
2023-03-23T20:09:46.352Z,14.52
2023-03-23T20:12:16.136Z,14.30
2023-03-23T20:14:45.362Z,14.13
2023-03-23T20:17:14.736Z,14.02
2023-03-23T20:19:44.998Z,13.95
2023-03-23T20:22:15.869Z,14.02
2023-03-23T20:24:47.021Z,13.98
2023-03-23T20:27:18.592Z,14.80
2023-03-23T20:29:47.124Z,14.23
2023-03-23T20:32:15.884Z,15.00
2023-03-23T20:34:49.406Z,14.85
2023-03-23T20:37:20.445Z,15.10
2023-03-23T20:39:49.516Z,15.20
2023-03-23T20:42:19.851Z,15.07
2023-03-23T20:44:48.601Z,15.18
2023-03-23T20:47:16.974Z,15.25
2023-03-23T20:49:52.807Z,16.13
2023-03-23T20:52:22.992Z,15.75
2023-03-23T20:54:52.460Z,15.60
2023-03-23T20:57:22.721Z,16.52
2023-03-23T20:59:51.697Z,19.60
2023-03-23T21:02:21.608Z,18.27
2023-03-23T21:04:52.722Z,17.92
2023-03-23T21:07:27.585Z,17.58
2023-03-23T21:09:57.058Z,18.90
2023-03-23T21:12:28.006Z,18.80
2023-03-23T21:14:56.518Z,18.55
2023-03-23T21:17:24.733Z,18.58
2023-03-23T21:19:55.672Z,18.17
2023-03-23T21:22:24.214Z,18.13
2023-03-23T21:24:53.990Z,17.42
2023-03-23T21:27:22.486Z,18.05
2023-03-23T21:29:51.394Z,17.50
2023-03-23T21:32:19.747Z,18.50
2023-03-23T21:34:48.381Z,17.23
2023-03-23T21:37:19.249Z,17.55
2023-03-23T21:39:47.825Z,17.23
2023-03-23T21:42:16.686Z,17.67
2023-03-23T21:44:45.800Z,19.08
2023-03-23T21:47:14.292Z,18.13
2023-03-23T21:49:46.237Z,17.80
2023-03-23T21:52:17.868Z,17.25
2023-03-23T21:54:48.884Z,17.35
2023-03-23T21:57:19.427Z,16.95
2023-03-23T21:59:47.787Z,17.35
2023-03-23T22:02:16.942Z,17.15
2023-03-23T22:04:45.909Z,17.83
2023-03-23T22:07:16.037Z,18.92
2023-03-23T22:09:46.117Z,17.13
2023-03-23T22:12:18.801Z,18.27
2023-03-23T22:14:49.244Z,17.05
2023-03-23T22:17:19.090Z,23.98
2023-03-23T22:19:50.780Z,24.58
2023-03-23T22:22:19.643Z,20.77
2023-03-23T22:24:49.790Z,21.17
2023-03-23T22:27:23.010Z,21.85
2023-03-23T22:29:53.343Z,21.88
2023-03-23T22:32:21.845Z,21.73
2023-03-23T22:34:53.991Z,21.95
2023-03-23T22:37:22.440Z,19.77
2023-03-23T22:39:54.031Z,18.52
2023-03-23T22:42:24.542Z,17.85
2023-03-23T22:44:53.011Z,17.65
2023-03-23T22:47:21.540Z,19.05
2023-03-23T22:49:50.621Z,18.77
2023-03-23T22:52:20.422Z,19.05
2023-03-23T22:54:54.839Z,19.05
2023-03-23T22:57:28.990Z,18.20
2023-03-23T22:59:57.465Z,17.75
2023-03-23T23:02:26.562Z,19.58
2023-03-23T23:04:55.666Z,19.08
2023-03-23T23:07:25.856Z,19.67
2023-03-23T23:09:56.038Z,19.65
2023-03-23T23:12:25.989Z,19.33
2023-03-23T23:14:54.939Z,20.73
2023-03-23T23:17:24.099Z,20.98
2023-03-23T23:19:53.648Z,19.75
2023-03-23T23:22:22.182Z,20.10
2023-03-23T23:24:52.255Z,19.63
2023-03-23T23:27:24.902Z,19.98
2023-03-23T23:29:54.898Z,19.67
2023-03-23T23:32:23.331Z,20.58
2023-03-23T23:34:54.408Z,19.92
2023-03-23T23:37:25.094Z,20.95
2023-03-23T23:39:54.166Z,20.92
2023-03-23T23:42:23.332Z,20.25
2023-03-23T23:44:51.960Z,20.55
2023-03-23T23:47:21.875Z,20.70
2023-03-23T23:49:50.392Z,21.58
2023-03-23T23:52:21.260Z,20.65
2023-03-23T23:54:55.129Z,21.25
2023-03-23T23:57:28.337Z,20.65
